South Hiram, Maine
Current Conditions -  °F | °C
As of 4:54 PM on Tuesday 21 Oct 2014 (Local Time) from KIZG Reporting Station
Overcast Overcast  
Wind Chill: 43°   Ceiling: 800
Heat Index: 47°   Visibility: 10mi
Dew Point: 45°   Wind: 8mph
Humidity: 93%   Direction: 350°N
Pressure: 30.03"   Gusts: NA
Location:  43.8772°N, 70.8351°W
Report Text: KIZG 212054Z AUTO 35007KT 10SM OVC008 08/07 A3003 RMK AO2 RAE36 SLP172 P0003 60009 T00830072 53004
Loading
Personal Weather Stations






























Interactive Weather Map
Tropical Storm Tracking
New forecast layout! Learn more

10-Day Weather Forecast

Advertisements
Track Severe Weather on mobile